createdAt,value
2017-10-06T00:00:14.644Z,10.30
2017-10-06T00:02:41.000Z,10.30
2017-10-06T00:05:08.032Z,10.30
2017-10-06T00:07:34.358Z,10.20
2017-10-06T00:10:00.717Z,10.20
2017-10-06T00:12:27.746Z,10.20
2017-10-06T00:14:54.080Z,10.20
2017-10-06T00:17:20.429Z,10.20
2017-10-06T00:19:46.759Z,10.20
2017-10-06T00:22:14.019Z,10.20
2017-10-06T00:24:41.034Z,10.30
2017-10-06T00:27:07.395Z,10.20
2017-10-06T00:29:40.532Z,10.30
2017-10-06T00:32:06.900Z,10.40
2017-10-06T00:34:33.329Z,10.40
2017-10-06T00:36:59.671Z,10.50
2017-10-06T00:39:26.020Z,10.50
2017-10-06T00:41:52.298Z,10.60
2017-10-06T00:44:18.643Z,10.70
2017-10-06T00:46:45.051Z,10.60
2017-10-06T00:49:11.402Z,10.60
2017-10-06T00:51:37.716Z,10.50
2017-10-06T00:54:04.071Z,10.60
2017-10-06T00:56:30.442Z,10.50
2017-10-06T00:58:56.833Z,10.60
2017-10-06T01:01:23.229Z,10.60
2017-10-06T01:03:49.737Z,10.60
2017-10-06T01:06:16.843Z,10.60
2017-10-06T01:08:43.153Z,10.60
2017-10-06T01:11:09.695Z,10.60
2017-10-06T01:13:36.141Z,10.60
2017-10-06T01:16:02.497Z,10.60
2017-10-06T01:18:28.933Z,10.60
2017-10-06T01:20:56.080Z,10.60
2017-10-06T01:23:22.414Z,10.60
2017-10-06T01:25:48.922Z,10.60
2017-10-06T01:28:15.252Z,10.60
2017-10-06T01:30:41.600Z,10.60
2017-10-06T01:33:07.898Z,10.50
2017-10-06T01:35:34.294Z,10.50
2017-10-06T01:38:01.364Z,10.40
2017-10-06T01:40:27.672Z,10.40
2017-10-06T01:42:54.727Z,10.30
2017-10-06T01:45:21.806Z,10.30
2017-10-06T01:47:48.117Z,10.30
2017-10-06T01:50:14.429Z,10.30
2017-10-06T01:52:41.509Z,10.10
2017-10-06T01:55:07.811Z,10.20
2017-10-06T01:57:34.881Z,10.00
2017-10-06T02:00:01.252Z,10.00
2017-10-06T02:02:27.621Z,10.00
2017-10-06T02:04:53.955Z,9.90
2017-10-06T02:07:21.063Z,9.80
2017-10-06T02:09:47.387Z,9.80
2017-10-06T02:12:13.712Z,9.80
2017-10-06T02:14:40.112Z,9.80
2017-10-06T02:17:06.418Z,9.80
2017-10-06T02:19:32.772Z,9.70
2017-10-06T02:21:59.176Z,9.80
2017-10-06T02:24:25.510Z,9.80
2017-10-06T02:26:51.842Z,9.70
2017-10-06T02:29:18.175Z,9.70
2017-10-06T02:31:44.515Z,9.70
2017-10-06T02:34:11.622Z,9.70
2017-10-06T02:36:38.025Z,9.70
2017-10-06T02:39:04.338Z,9.70
2017-10-06T02:41:30.705Z,9.60
2017-10-06T02:43:57.239Z,9.60
2017-10-06T02:46:23.635Z,9.70
2017-10-06T02:48:50.764Z,9.70
2017-10-06T02:51:17.093Z,9.60
2017-10-06T02:53:43.417Z,9.70
2017-10-06T02:56:09.746Z,9.70
2017-10-06T02:58:36.091Z,9.60
2017-10-06T03:01:04.281Z,9.60
2017-10-06T03:03:31.377Z,9.60
2017-10-06T03:05:57.725Z,9.60
2017-10-06T03:08:24.040Z,9.60
2017-10-06T03:10:50.429Z,9.60
2017-10-06T03:13:16.771Z,9.60
2017-10-06T03:15:43.078Z,9.60
2017-10-06T03:18:10.217Z,9.60
2017-10-06T03:20:36.694Z,9.60
2017-10-06T03:23:03.026Z,9.60
2017-10-06T03:25:29.382Z,9.60
2017-10-06T03:27:55.698Z,9.60
2017-10-06T03:30:22.075Z,9.70
2017-10-06T03:32:48.500Z,9.60
2017-10-06T03:35:14.868Z,9.70
2017-10-06T03:37:41.229Z,9.70
2017-10-06T03:40:07.527Z,9.60
2017-10-06T03:42:33.872Z,9.40
2017-10-06T03:45:00.931Z,9.30
2017-10-06T03:47:34.243Z,9.30
2017-10-06T03:50:00.583Z,9.30
2017-10-06T03:52:26.983Z,9.30
2017-10-06T03:54:53.269Z,9.20
2017-10-06T03:57:19.618Z,9.20
2017-10-06T03:59:46.714Z,9.20
2017-10-06T04:02:13.082Z,9.10
2017-10-06T04:04:39.494Z,9.20
2017-10-06T04:07:05.851Z,9.20
2017-10-06T04:09:32.185Z,9.20
2017-10-06T04:11:59.287Z,9.30
2017-10-06T04:14:25.596Z,9.30
2017-10-06T04:16:52.666Z,9.30
2017-10-06T04:19:19.000Z,9.20
2017-10-06T04:21:45.483Z,9.30
2017-10-06T04:24:11.898Z,9.30
2017-10-06T04:26:38.263Z,9.30
2017-10-06T04:29:04.637Z,9.30
2017-10-06T04:31:31.036Z,9.30
2017-10-06T04:33:58.101Z,9.30
2017-10-06T04:36:24.378Z,9.30
2017-10-06T04:38:50.700Z,9.30
2017-10-06T04:41:17.107Z,9.30
2017-10-06T04:43:43.439Z,9.40
2017-10-06T04:46:09.729Z,9.40
2017-10-06T04:48:36.903Z,9.30
2017-10-06T04:51:03.221Z,9.30
2017-10-06T04:53:30.332Z,9.30
2017-10-06T04:55:56.709Z,9.30
2017-10-06T04:58:23.112Z,9.30
2017-10-06T05:00:49.506Z,9.30
2017-10-06T05:03:15.904Z,9.30
2017-10-06T05:05:42.310Z,9.30
2017-10-06T05:08:09.396Z,9.30
2017-10-06T05:10:35.834Z,9.30
2017-10-06T05:13:02.282Z,9.30
2017-10-06T05:15:28.650Z,9.30
2017-10-06T05:17:55.092Z,9.40
2017-10-06T05:20:21.545Z,9.40
2017-10-06T05:22:48.639Z,9.40
2017-10-06T05:25:15.044Z,9.30
2017-10-06T05:27:41.368Z,9.30
2017-10-06T05:30:07.769Z,9.40
2017-10-06T05:32:34.187Z,9.40
2017-10-06T05:35:00.589Z,9.40
2017-10-06T05:37:27.046Z,9.40
2017-10-06T05:39:53.359Z,9.40
2017-10-06T05:42:19.725Z,9.40
2017-10-06T05:44:46.058Z,9.40
2017-10-06T05:47:12.433Z,9.40
2017-10-06T05:49:38.805Z,9.50
2017-10-06T05:52:05.177Z,9.50
2017-10-06T05:54:32.304Z,9.50
2017-10-06T05:56:58.647Z,9.50
2017-10-06T05:59:25.815Z,9.60
2017-10-06T06:01:52.161Z,9.60
2017-10-06T06:04:18.468Z,9.60
2017-10-06T06:06:45.529Z,9.60
2017-10-06T06:09:11.850Z,9.60
2017-10-06T06:11:38.994Z,9.60
2017-10-06T06:14:06.096Z,9.50
2017-10-06T06:16:32.603Z,9.50
2017-10-06T06:18:59.006Z,9.50
2017-10-06T06:21:26.158Z,9.60
2017-10-06T06:23:52.545Z,9.60
2017-10-06T06:26:18.854Z,9.70
2017-10-06T06:28:45.198Z,9.70
2017-10-06T06:31:11.535Z,9.70
2017-10-06T06:33:37.941Z,9.80
2017-10-06T06:36:04.260Z,9.90
2017-10-06T06:38:31.385Z,10.30
2017-10-06T06:40:57.831Z,10.20
2017-10-06T06:43:25.281Z,10.30
2017-10-06T06:45:52.538Z,10.40
2017-10-06T06:48:18.905Z,10.40
2017-10-06T06:50:45.510Z,10.40
2017-10-06T06:53:11.958Z,10.50
2017-10-06T06:55:39.140Z,10.60
2017-10-06T06:58:05.672Z,10.60
2017-10-06T07:00:32.091Z,10.70
2017-10-06T07:02:58.482Z,10.60
2017-10-06T07:05:24.890Z,10.60
2017-10-06T07:07:52.025Z,10.80
2017-10-06T07:10:18.429Z,10.80
2017-10-06T07:12:45.543Z,11.00
2017-10-06T07:15:11.948Z,11.00
2017-10-06T07:17:38.289Z,10.80
2017-10-06T07:20:04.664Z,10.90
2017-10-06T07:22:31.741Z,10.80
2017-10-06T07:24:58.142Z,10.80
2017-10-06T07:27:24.545Z,10.80
2017-10-06T07:29:50.933Z,10.80
2017-10-06T07:32:17.333Z,10.80
2017-10-06T07:34:44.307Z,10.80
2017-10-06T07:37:11.484Z,10.90
2017-10-06T07:39:37.929Z,10.90
2017-10-06T07:42:04.248Z,11.00
2017-10-06T07:44:30.686Z,11.20
2017-10-06T07:46:57.031Z,11.20
2017-10-06T07:49:23.396Z,11.30
2017-10-06T07:51:49.740Z,11.40
2017-10-06T07:54:16.826Z,11.20
2017-10-06T07:56:43.186Z,11.30
2017-10-06T07:59:09.495Z,11.30
2017-10-06T08:01:35.868Z,11.50
2017-10-06T08:04:02.200Z,11.40
2017-10-06T08:06:28.524Z,11.40
2017-10-06T08:08:54.882Z,11.50
2017-10-06T08:11:22.027Z,11.70
2017-10-06T08:13:49.383Z,11.80
2017-10-06T08:16:16.611Z,11.70
2017-10-06T08:18:42.940Z,11.70
2017-10-06T08:21:10.222Z,11.70
2017-10-06T08:23:37.364Z,11.90
2017-10-06T08:26:03.802Z,11.90
2017-10-06T08:28:30.930Z,11.90
2017-10-06T08:30:57.284Z,11.90
2017-10-06T08:33:24.359Z,11.90
2017-10-06T08:35:50.694Z,11.90
2017-10-06T08:38:17.042Z,12.30
2017-10-06T08:40:43.657Z,12.20
2017-10-06T08:43:10.296Z,12.10
2017-10-06T08:45:36.617Z,12.00
2017-10-06T08:48:02.970Z,12.10
2017-10-06T08:50:29.351Z,12.00
2017-10-06T08:52:55.740Z,12.20
2017-10-06T08:55:22.161Z,12.30
2017-10-06T08:57:48.604Z,12.20
2017-10-06T09:00:14.973Z,12.10
2017-10-06T09:02:41.422Z,12.10
2017-10-06T09:05:08.496Z,12.50
2017-10-06T09:07:34.964Z,12.40
2017-10-06T09:10:01.391Z,12.50
2017-10-06T09:12:28.102Z,12.50
2017-10-06T09:14:54.511Z,12.50
2017-10-06T09:17:20.830Z,12.50
2017-10-06T09:19:47.263Z,12.60
2017-10-06T09:22:13.625Z,12.60
2017-10-06T09:24:40.032Z,12.80
2017-10-06T09:27:06.416Z,13.00
2017-10-06T09:29:32.717Z,12.70
2017-10-06T09:31:59.999Z,12.70
2017-10-06T09:34:26.487Z,12.70
2017-10-06T09:36:52.947Z,12.80
2017-10-06T09:39:20.060Z,13.10
2017-10-06T09:41:46.464Z,13.10
2017-10-06T09:44:12.783Z,13.00
2017-10-06T09:46:39.111Z,13.00
2017-10-06T09:49:05.512Z,12.90
2017-10-06T09:51:32.650Z,13.10
2017-10-06T09:53:59.028Z,13.10
2017-10-06T09:56:25.381Z,13.30
2017-10-06T09:58:51.844Z,13.10
2017-10-06T10:01:18.155Z,13.20
2017-10-06T10:03:44.577Z,13.50
2017-10-06T10:06:10.993Z,13.80
2017-10-06T10:08:37.565Z,13.80
2017-10-06T10:11:04.092Z,13.50
2017-10-06T10:16:03.504Z,13.30
2017-10-06T10:18:29.868Z,13.20
2017-10-06T10:20:56.418Z,13.30
2017-10-06T10:23:23.808Z,13.60
2017-10-06T10:25:50.183Z,13.60
2017-10-06T10:28:16.569Z,13.90
2017-10-06T10:30:42.918Z,14.00
2017-10-06T10:33:09.296Z,14.20
2017-10-06T10:35:36.412Z,14.40
2017-10-06T10:38:02.714Z,14.40
2017-10-06T10:40:29.023Z,13.90
2017-10-06T10:42:56.201Z,14.10
2017-10-06T10:45:22.668Z,14.10
2017-10-06T10:47:49.323Z,14.20
2017-10-06T10:50:16.114Z,14.00
2017-10-06T10:52:42.505Z,13.70
2017-10-06T10:55:09.007Z,13.60
2017-10-06T10:57:35.430Z,13.60
2017-10-06T11:00:01.741Z,13.60
2017-10-06T11:02:28.132Z,13.80
2017-10-06T11:04:54.424Z,14.00
2017-10-06T11:07:20.830Z,14.00
2017-10-06T11:09:47.130Z,13.60
2017-10-06T11:12:13.391Z,13.30
2017-10-06T11:14:39.721Z,13.20
2017-10-06T11:17:06.024Z,13.20
2017-10-06T11:19:33.098Z,12.90
2017-10-06T11:21:59.459Z,12.90
2017-10-06T11:24:25.864Z,12.90
2017-10-06T11:26:52.204Z,12.90
2017-10-06T11:29:18.692Z,12.90
2017-10-06T11:31:45.089Z,12.80
2017-10-06T11:34:11.530Z,12.80
2017-10-06T11:36:37.841Z,12.60
2017-10-06T11:39:04.157Z,12.30
2017-10-06T11:41:30.496Z,12.10
2017-10-06T11:43:56.871Z,12.00
2017-10-06T11:46:23.277Z,12.20
2017-10-06T11:48:49.677Z,12.30
2017-10-06T11:51:16.021Z,12.50
2017-10-06T11:53:42.481Z,12.40
2017-10-06T11:56:09.032Z,12.10
2017-10-06T11:58:35.350Z,12.00
2017-10-06T12:01:01.937Z,11.90
2017-10-06T12:03:29.069Z,11.90
2017-10-06T12:05:55.459Z,11.80
2017-10-06T12:08:21.881Z,12.10
2017-10-06T12:10:48.209Z,12.10
2017-10-06T12:13:14.632Z,12.10
2017-10-06T12:15:41.849Z,12.10
2017-10-06T12:18:08.290Z,12.10
2017-10-06T12:20:34.646Z,12.10
2017-10-06T12:23:00.982Z,12.00
2017-10-06T12:25:27.438Z,12.20
2017-10-06T12:27:53.726Z,13.20
2017-10-06T12:30:20.207Z,14.60
2017-10-06T12:32:46.670Z,14.50
2017-10-06T12:35:13.022Z,14.70
2017-10-06T12:37:39.502Z,14.50
2017-10-06T12:40:05.868Z,14.10
2017-10-06T12:42:32.330Z,13.90
2017-10-06T12:44:58.749Z,13.80
2017-10-06T12:47:25.256Z,14.10
2017-10-06T12:49:51.705Z,14.70
2017-10-06T12:52:18.097Z,14.90
2017-10-06T12:54:44.538Z,15.30
2017-10-06T12:57:11.013Z,15.40
2017-10-06T12:59:37.614Z,15.60
2017-10-06T13:02:04.067Z,16.50
2017-10-06T13:04:30.445Z,17.80
2017-10-06T13:06:57.629Z,15.60
2017-10-06T13:09:23.985Z,15.60
2017-10-06T13:11:50.463Z,15.00
2017-10-06T13:14:17.607Z,13.70
2017-10-06T13:16:44.850Z,13.20
2017-10-06T13:19:12.164Z,13.30
2017-10-06T13:21:38.558Z,13.20
2017-10-06T13:24:04.944Z,13.20
2017-10-06T13:26:31.444Z,13.20
2017-10-06T13:28:57.860Z,13.20
2017-10-06T13:31:24.267Z,13.10
2017-10-06T13:33:50.742Z,13.40
2017-10-06T13:36:17.130Z,13.60
2017-10-06T13:38:43.558Z,13.40
2017-10-06T13:41:10.099Z,13.50
2017-10-06T13:43:36.693Z,13.20
2017-10-06T13:46:03.363Z,13.10
2017-10-06T13:48:29.766Z,13.30
2017-10-06T13:50:56.217Z,13.50
2017-10-06T13:53:22.587Z,13.40
2017-10-06T13:55:49.633Z,13.20
2017-10-06T13:58:16.044Z,13.20
2017-10-06T14:00:43.209Z,13.20
2017-10-06T14:03:09.611Z,13.20
2017-10-06T14:05:35.958Z,13.60
2017-10-06T14:08:02.467Z,13.40
2017-10-06T14:10:29.027Z,12.80
2017-10-06T14:12:55.473Z,12.90
2017-10-06T14:15:21.898Z,12.90
2017-10-06T14:17:49.010Z,13.00
2017-10-06T14:20:15.334Z,13.00
2017-10-06T14:22:41.771Z,12.90
2017-10-06T14:25:08.428Z,12.90
2017-10-06T14:27:34.788Z,12.90
2017-10-06T14:30:01.146Z,12.80
2017-10-06T14:32:28.236Z,12.60
2017-10-06T14:34:54.610Z,12.60
2017-10-06T14:37:20.940Z,12.30
2017-10-06T14:39:48.085Z,12.10
2017-10-06T14:42:14.441Z,12.00
2017-10-06T14:44:40.819Z,12.10
2017-10-06T14:47:07.217Z,12.20
2017-10-06T14:49:33.813Z,12.30
2017-10-06T14:52:00.141Z,12.40
2017-10-06T14:54:26.543Z,12.40
2017-10-06T14:56:52.931Z,12.30
2017-10-06T14:59:20.080Z,12.20
2017-10-06T15:01:46.565Z,12.20
2017-10-06T15:04:12.978Z,12.30
2017-10-06T15:06:39.468Z,12.20
2017-10-06T15:09:05.928Z,12.20
2017-10-06T15:11:33.095Z,11.90
2017-10-06T15:13:59.600Z,11.90
2017-10-06T15:16:26.713Z,11.00
2017-10-06T15:18:53.073Z,11.00
2017-10-06T15:21:19.390Z,10.50
2017-10-06T15:23:45.772Z,10.30
2017-10-06T15:26:12.176Z,10.10
2017-10-06T15:28:38.548Z,10.10
2017-10-06T15:31:04.989Z,10.10
2017-10-06T15:33:31.442Z,10.10
2017-10-06T15:35:57.808Z,10.10
2017-10-06T15:38:24.184Z,10.10
2017-10-06T15:40:50.643Z,10.10
2017-10-06T15:43:16.987Z,10.00
2017-10-06T15:45:43.323Z,10.00
2017-10-06T15:48:09.803Z,10.00
2017-10-06T15:50:36.354Z,9.90
2017-10-06T15:53:02.726Z,10.00
2017-10-06T15:55:29.037Z,10.10
2017-10-06T15:57:55.489Z,10.10
2017-10-06T16:00:21.822Z,10.10
2017-10-06T16:02:48.311Z,10.20
2017-10-06T16:05:14.717Z,10.20
2017-10-06T16:07:41.152Z,10.30
2017-10-06T16:10:09.101Z,10.40
2017-10-06T16:12:35.611Z,10.40
2017-10-06T16:15:02.050Z,10.40
2017-10-06T16:17:28.415Z,10.50
2017-10-06T16:19:55.667Z,10.50
2017-10-06T16:22:22.900Z,10.50
2017-10-06T16:24:49.379Z,10.40
2017-10-06T16:27:15.922Z,10.50
2017-10-06T16:29:42.277Z,10.50
2017-10-06T16:32:08.664Z,10.50
2017-10-06T16:34:35.824Z,10.50
2017-10-06T16:37:02.282Z,10.50
2017-10-06T16:39:28.644Z,10.50
2017-10-06T16:41:54.951Z,10.50
2017-10-06T16:44:21.379Z,10.50
2017-10-06T16:46:47.756Z,10.50
2017-10-06T16:49:14.246Z,10.50
2017-10-06T16:51:40.589Z,10.50
2017-10-06T16:54:06.915Z,10.50
2017-10-06T16:56:33.321Z,10.50
2017-10-06T16:58:59.706Z,10.60
2017-10-06T17:01:26.155Z,10.60
2017-10-06T17:03:52.592Z,10.60
2017-10-06T17:06:19.752Z,10.60
2017-10-06T17:08:46.255Z,10.60
2017-10-06T17:11:12.597Z,10.70
2017-10-06T17:13:38.983Z,10.70
2017-10-06T17:16:05.376Z,10.70
2017-10-06T17:18:32.522Z,10.70
2017-10-06T17:20:59.666Z,10.70
2017-10-06T17:23:26.118Z,10.70
2017-10-06T17:25:52.496Z,10.70
2017-10-06T17:28:18.849Z,10.80
2017-10-06T17:30:45.232Z,10.70
2017-10-06T17:33:11.627Z,10.70
2017-10-06T17:35:38.023Z,10.70
2017-10-06T17:38:04.383Z,10.70
2017-10-06T17:40:30.886Z,10.80
2017-10-06T17:42:57.312Z,10.80
2017-10-06T17:45:30.594Z,10.70
2017-10-06T17:47:56.979Z,10.70
2017-10-06T17:50:23.596Z,10.70
2017-10-06T17:52:50.046Z,10.70
2017-10-06T17:55:16.382Z,10.70
2017-10-06T17:57:42.832Z,10.70
2017-10-06T18:00:10.134Z,10.70
2017-10-06T18:02:36.452Z,10.70
2017-10-06T18:05:02.941Z,10.80
2017-10-06T18:07:29.396Z,10.80
2017-10-06T18:09:55.732Z,10.80
2017-10-06T18:12:22.073Z,10.70
2017-10-06T18:14:49.777Z,10.70
2017-10-06T18:17:16.133Z,10.70
2017-10-06T18:19:42.533Z,10.70
2017-10-06T18:22:08.977Z,10.70
2017-10-06T18:24:35.381Z,10.60
2017-10-06T18:27:02.030Z,10.60
2017-10-06T18:29:28.451Z,10.60
2017-10-06T18:31:55.207Z,10.60
2017-10-06T18:34:21.783Z,10.60
2017-10-06T18:36:48.224Z,10.60
2017-10-06T18:39:14.706Z,10.60
2017-10-06T18:41:41.086Z,10.50
2017-10-06T18:44:07.397Z,10.50
2017-10-06T18:46:33.733Z,10.50
2017-10-06T18:49:00.135Z,10.40
2017-10-06T18:51:26.566Z,10.40
2017-10-06T18:53:57.372Z,10.30
2017-10-06T18:56:23.736Z,10.30
2017-10-06T18:58:50.188Z,10.20
2017-10-06T19:01:16.541Z,10.20
2017-10-06T19:03:42.942Z,10.20
2017-10-06T19:06:09.465Z,10.10
2017-10-06T19:08:35.843Z,10.20
2017-10-06T19:11:02.223Z,10.20
2017-10-06T19:13:28.568Z,10.30
2017-10-06T19:15:54.959Z,10.20
2017-10-06T19:18:21.466Z,10.10
2017-10-06T19:20:47.779Z,10.10
2017-10-06T19:23:14.127Z,10.10
2017-10-06T19:25:40.577Z,10.00
2017-10-06T19:28:07.148Z,9.90
2017-10-06T19:30:34.289Z,9.90
2017-10-06T19:33:01.497Z,10.00
2017-10-06T19:35:27.890Z,10.00
2017-10-06T19:37:54.253Z,10.00
2017-10-06T19:40:20.810Z,10.00
2017-10-06T19:42:47.243Z,10.10
2017-10-06T19:45:13.667Z,10.10
2017-10-06T19:47:40.065Z,10.20
2017-10-06T19:50:07.022Z,10.20
2017-10-06T19:52:33.461Z,10.30
2017-10-06T19:54:59.891Z,10.30
2017-10-06T19:57:26.588Z,10.30
2017-10-06T19:59:52.900Z,10.30
2017-10-06T20:02:19.275Z,10.30
2017-10-06T20:07:17.803Z,10.20
2017-10-06T20:19:52.559Z,10.40
2017-10-06T20:37:33.409Z,10.60
2017-10-06T20:42:32.601Z,10.70
2017-10-06T21:02:43.974Z,10.80
2017-10-06T21:05:10.701Z,10.80
2017-10-06T21:07:37.239Z,10.80
2017-10-06T21:12:36.330Z,10.80
2017-10-06T21:20:07.029Z,10.90
2017-10-06T21:35:13.814Z,10.80
2017-10-06T21:37:40.225Z,10.70
2017-10-06T21:52:48.088Z,10.70
2017-10-06T21:55:36.404Z,10.70
2017-10-06T21:58:02.833Z,10.80
2017-10-06T22:13:11.353Z,11.00
2017-10-06T22:18:10.765Z,11.10
2017-10-06T22:28:13.256Z,11.10
2017-10-06T22:30:39.678Z,11.10
2017-10-06T22:35:38.154Z,11.10
2017-10-06T22:40:37.604Z,11.10
2017-10-06T22:43:04.092Z,11.10
2017-10-06T22:45:38.234Z,11.00
2017-10-06T23:00:46.027Z,10.90
2017-10-06T23:03:12.448Z,10.90
2017-10-06T23:08:11.630Z,10.90
2017-10-06T23:10:38.063Z,10.90
2017-10-06T23:13:04.439Z,11.00
2017-10-06T23:18:03.785Z,11.00
2017-10-06T23:20:30.177Z,11.00
2017-10-06T23:28:01.694Z,11.00
2017-10-06T23:35:32.325Z,11.10
2017-10-06T23:40:31.349Z,11.00
2017-10-06T23:45:30.525Z,11.10
2017-10-06T23:53:01.396Z,11.10
2017-10-06T23:55:27.688Z,11.00
2017-10-06T23:57:54.095Z,11.00
